Time;durP1;ratioP1;P1;durP2;ratioP2;P2;SDS_P1;SDS_P2;PMS_P1;PMS_P2;Temp;Humidity;BMP_temperature;BMP_pressure;BME280_temperature;BME280_humidity;BME280_pressure;Samples;Min_cycle;Max_cycle;Signal;HPM_P1;HPM_P2
2022/03/20 00:00:29;;;;;;;28.63;11.27;;;;;;;;;;4997832;28;20027;-73
2022/03/20 00:02:55;;;;;;;21.55;10.43;;;;;;;;;;4996387;28;20117;-73
2022/03/20 00:05:21;;;;;;;30.67;12.70;;;;;;;;;;4997886;28;20037;-73
2022/03/20 00:07:47;;;;;;;26.00;11.27;;;;;;;;;;4997548;28;20506;-73
2022/03/20 00:10:14;;;;;;;25.25;12.20;;;;;;;;;;4997109;28;20851;-73
2022/03/20 00:12:40;;;;;;;35.20;13.98;;;5.90;99.90;;;;;;4999588;28;20026;-73
2022/03/20 00:15:06;;;;;;;28.52;11.02;;;;;;;;;;4996800;28;20065;-73
2022/03/20 00:17:32;;;;;;;37.78;12.40;;;5.80;99.90;;;;;;4983221;28;20058;-73
2022/03/20 00:19:58;;;;;;;23.33;10.18;;;;;;;;;;4996169;28;20056;-73
2022/03/20 00:22:24;;;;;;;26.65;10.05;;;5.70;97.50;;;;;;4995566;28;20034;-73
2022/03/20 00:24:50;;;;;;;36.70;14.40;;;;;;;;;;4997283;28;20041;-73
2022/03/20 00:27:16;;;;;;;29.35;11.63;;;5.50;98.70;;;;;;4996549;28;20142;-72
2022/03/20 00:29:42;;;;;;;30.27;11.82;;;;;;;;;;4997951;28;20026;-73
2022/03/20 00:32:11;;;;;;;31.35;11.13;;;5.60;98.40;;;;;;4997070;28;20037;-73
2022/03/20 00:34:37;;;;;;;19.73;10.63;;;;;;;;;;4995504;28;20030;-73
2022/03/20 00:37:04;;;;;;;32.42;12.55;;;;;;;;;;4978649;28;20030;-72
2022/03/20 00:39:30;;;;;;;20.47;10.17;;;;;;;;;;4997693;28;20488;-74
2022/03/20 00:41:56;;;;;;;26.05;12.25;;;;;;;;;;4996286;28;20289;-72
2022/03/20 00:44:22;;;;;;;32.78;9.23;;;;;;;;;;4994853;28;20217;-73
2022/03/20 00:46:48;;;;;;;31.33;12.20;;;;;;;;;;4995380;28;20042;-73
2022/03/20 00:49:15;;;;;;;31.90;10.38;;;;;;;;;;4996378;28;20033;-72
2022/03/20 00:51:41;;;;;;;21.98;10.20;;;;;;;;;;4983441;28;20725;-73
2022/03/20 00:54:07;;;;;;;25.48;10.45;;;;;;;;;;4999598;28;20467;-72
2022/03/20 00:56:33;;;;;;;29.08;10.43;;;;;;;;;;5000167;28;20675;-73
2022/03/20 00:58:59;;;;;;;24.63;9.90;;;;;;;;;;5000499;28;20033;-72
2022/03/20 01:01:28;;;;;;;26.67;9.70;;;;;;;;;;4998864;28;20030;-72
2022/03/20 01:03:54;;;;;;;26.45;10.82;;;;;;;;;;5001934;28;20045;-73
2022/03/20 01:06:22;;;;;;;18.00;8.93;;;;;;;;;;4999399;28;20069;-72
2022/03/20 01:08:49;;;;;;;14.02;8.43;;;;;;;;;;5000180;28;20045;-73
2022/03/20 01:11:15;;;;;;;26.13;8.30;;;;;;;;;;5001560;28;20038;-73
2022/03/20 01:13:41;;;;;;;14.95;8.73;;;;;;;;;;4999794;28;20410;-73
2022/03/20 01:16:07;;;;;;;24.13;7.80;;;;;;;;;;4983006;28;20100;-73
2022/03/20 01:18:34;;;;;;;21.75;7.78;;;;;;;;;;5001200;28;20069;-73
2022/03/20 01:21:00;;;;;;;19.40;7.60;;;;;;;;;;4999496;28;20018;-73
2022/03/20 01:23:26;;;;;;;14.38;6.78;;;;;;;;;;4997994;28;20499;-73
2022/03/20 01:25:52;;;;;;;19.92;5.47;;;8.50;99.90;;;;;;4988621;28;20026;-73
2022/03/20 01:28:18;;;;;;;13.27;7.50;;;;;;;;;;5000375;28;20142;-73
2022/03/20 01:30:44;;;;;;;16.33;7.60;;;;;;;;;;5001132;28;20072;-73
2022/03/20 01:33:11;;;;;;;11.50;5.53;;;;;;;;;;5000408;28;20850;-74
2022/03/20 01:35:37;;;;;;;15.25;7.05;;;;;;;;;;5001020;28;20032;-73
2022/03/20 01:38:07;;;;;;;12.43;6.15;;;;;;;;;;5000378;28;20559;-73
2022/03/20 01:40:34;;;;;;;15.35;7.57;;;8.30;93.10;;;;;;4998795;28;20056;-73
2022/03/20 01:43:00;;;;;;;14.63;6.45;;;;;;;;;;4999881;28;20034;-73
2022/03/20 01:45:26;;;;;;;15.73;7.30;;;;;;;;;;4998464;28;20683;-74
2022/03/20 01:47:52;;;;;;;12.55;5.38;;;;;;;;;;4998928;28;20057;-73
2022/03/20 01:50:20;;;;;;;28.40;6.13;;;;;;;;;;5000153;28;20410;-74
2022/03/20 01:52:46;;;;;;;;;;;;;;;;;;4998591;28;20470;-73
2022/03/20 01:55:12;;;;;;;21.35;5.78;;;8.10;92.90;;;;;;4999216;28;19910;-72
2022/03/20 01:57:39;;;;;;;9.65;5.60;;;;;;;;;;5001371;28;20487;-73
2022/03/20 02:00:09;;;;;;;18.38;6.05;;;;;;;;;;4999177;28;20033;-73
2022/03/20 02:02:35;;;;;;;10.77;5.07;;;8.20;99.90;;;;;;4997550;28;20033;-73
2022/03/20 02:05:01;;;;;;;14.40;6.30;;;;;;;;;;4994750;28;20085;-73
2022/03/20 02:07:27;;;;;;;11.68;5.35;;;;;;;;;;4998116;28;20038;-73
2022/03/20 02:09:54;;;;;;;17.50;6.72;;;;;;;;;;4999472;28;20027;-72
2022/03/20 02:12:20;;;;;;;16.75;7.10;;;;;;;;;;4999701;28;20493;-72
2022/03/20 02:14:46;;;;;;;14.95;4.78;;;;;;;;;;4994961;28;20201;-72
2022/03/20 02:17:12;;;;;;;15.63;5.55;;;8.50;95.40;;;;;;5000103;28;20026;-73
2022/03/20 02:19:39;;;;;;;14.68;6.13;;;;;;;;;;4999125;28;20104;-72
2022/03/20 02:22:06;;;;;;;14.05;5.80;;;;;;;;;;4998725;28;20023;-73
2022/03/20 02:24:40;;;;;;;9.60;3.97;;;;;;;;;;4998636;28;20021;-72
2022/03/20 02:27:09;;;;;;;8.90;6.13;;;;;;;;;;4998425;28;20645;-72
2022/03/20 02:29:35;;;;;;;8.82;4.53;;;;;;;;;;4999478;28;20404;-73
2022/03/20 02:32:02;;;;;;;8.38;4.90;;;;;;;;;;4998895;28;20026;-73
2022/03/20 02:34:30;;;;;;;10.57;6.70;;;;;;;;;;4997969;28;20036;-72
2022/03/20 02:36:57;;;;;;;10.57;5.68;;;;;;;;;;4998915;28;20045;-72
2022/03/20 02:39:23;;;;;;;15.07;6.38;;;;;;;;;;4998803;28;20557;-73
2022/03/20 02:41:51;;;;;;;23.63;7.70;;;8.30;88.80;;;;;;4997832;28;20109;-73
2022/03/20 02:44:17;;;;;;;9.95;6.18;;;;;;;;;;4997334;28;20034;-72
2022/03/20 02:46:43;;;;;;;13.18;6.38;;;;;;;;;;4997833;28;20145;-72
2022/03/20 02:49:10;;;;;;;9.50;6.00;;;;;;;;;;4997084;28;20129;-73
2022/03/20 02:51:36;;;;;;;10.63;4.68;;;;;;;;;;4998362;28;20515;-75
2022/03/20 02:54:06;;;;;;;9.15;4.18;;;;;;;;;;4997439;28;20038;-72
2022/03/20 02:56:33;;;;;;;14.27;4.80;;;;;;;;;;5000502;28;20113;-73
2022/03/20 02:59:00;;;;;;;8.98;4.32;;;;;;;;;;4999428;28;20048;-73
2022/03/20 03:01:26;;;;;;;13.68;4.47;;;;;;;;;;4999691;28;20481;-73
2022/03/20 03:03:54;;;;;;;10.95;4.95;;;;;;;;;;5001640;28;20113;-73
2022/03/20 03:06:20;;;;;;;7.20;3.88;;;;;;;;;;4998289;28;20085;-73
2022/03/20 03:11:31;;;;;;;10.55;4.63;;;;;;;;;;4998310;28;20560;-72
2022/03/20 03:15:18;;;;;;;12.45;5.32;;;;;;;;;;4997093;28;20042;-73
2022/03/20 03:16:43;;;;;;;22.83;4.93;;;;;;;;;;4997313;28;20394;-73
2022/03/20 03:19:12;;;;;;;8.93;5.22;;;;;;;;;;4997727;28;20030;-73
2022/03/20 03:21:38;;;;;;;8.63;5.05;;;;;;;;;;4999028;28;20517;-73
2022/03/20 03:24:06;;;;;;;9.02;4.15;;;;;;;;;;4998017;28;20061;-72
2022/03/20 03:26:32;;;;;;;9.60;6.13;;;;;;;;;;4995722;28;20038;-72
2022/03/20 03:28:59;;;;;;;7.40;5.22;;;;;;;;;;4997017;28;20049;-73
2022/03/20 03:31:25;;;;;;;8.02;2.95;;;;;;;;;;4998218;28;20637;-73
2022/03/20 03:36:36;;;;;;;11.50;4.95;;;;;;;;;;4998889;28;20036;-73
2022/03/20 03:39:02;;;;;;;8.02;4.82;;;7.90;97.20;;;;;;4997926;28;20188;-73
2022/03/20 03:41:27;;;;;;;10.57;4.60;;;8.30;97.30;;;;;;4997444;28;20111;-72
2022/03/20 03:43:53;;;;;;;8.80;4.47;;;;;;;;;;4998300;28;20527;-73
2022/03/20 03:46:19;;;;;;;10.63;4.35;;;;;;;;;;4997469;28;20049;-73
2022/03/20 03:48:45;;;;;;;13.52;3.88;;;;;;;;;;4998682;28;20030;-73
2022/03/20 03:51:11;;;;;;;8.70;4.03;;;;;;;;;;4996606;28;20041;-72
2022/03/20 03:53:37;;;;;;;9.32;4.63;;;;;;;;;;4979679;28;20108;-73
2022/03/20 03:56:03;;;;;;;9.05;3.78;;;;;;;;;;4997730;28;20628;-73
2022/03/20 03:58:29;;;;;;;7.30;4.70;;;;;;;;;;4996265;28;20041;-73
2022/03/20 04:00:55;;;;;;;10.60;4.45;;;;;;;;;;4995921;28;20403;-73
2022/03/20 04:03:22;;;;;;;8.60;3.88;;;;;;;;;;4997588;28;20033;-72
2022/03/20 04:05:48;;;;;;;7.28;3.97;;;7.90;96.50;;;;;;4997306;28;20069;-73
2022/03/20 04:08:15;;;;;;;10.43;5.47;;;8.10;91.40;;;;;;4997547;28;20538;-72
2022/03/20 04:10:41;;;;;;;7.30;4.05;;;;;;;;;;4995224;28;20173;-74
2022/03/20 04:13:08;;;;;;;10.07;3.90;;;;;;;;;;4994499;28;20109;-73
2022/03/20 04:15:34;;;;;;;8.43;4.32;;;;;;;;;;4997993;28;20037;-72
2022/03/20 04:18:01;;;;;;;6.85;3.97;;;;;;;;;;4996265;28;20049;-72
2022/03/20 04:20:27;;;;;;;9.23;3.20;;;;;;;;;;4996329;28;20034;-72
2022/03/20 04:25:39;;;;;;;8.85;3.85;;;8.30;87.40;;;;;;4994274;28;20125;-73
2022/03/20 04:28:05;;;;;;;;;;;;;;;;;;4995555;28;20116;-72
2022/03/20 04:30:32;;;;;;;10.77;4.63;;;;;;;;;;4997621;28;20370;-73
2022/03/20 04:32:58;;;;;;;5.05;3.65;;;;;;;;;;4995619;28;20465;-73
2022/03/20 04:35:24;;;;;;;10.32;3.78;;;;;;;;;;4979205;28;20109;-73
2022/03/20 04:37:51;;;;;;;10.93;4.50;;;;;;;;;;4985559;28;20034;-72
2022/03/20 04:40:17;;;;;;;5.88;3.75;;;;;;;;;;4996276;28;20031;-73
2022/03/20 04:42:43;;;;;;;9.82;4.57;;;;;;;;;;4980388;28;20033;-73
2022/03/20 04:45:11;;;;;;;5.63;3.03;;;;;;;;;;4994826;28;20526;-72
2022/03/20 04:58:36;;;;;;;11.82;3.38;;;;;;;;;;4996940;28;20049;-73
2022/03/20 05:01:02;;;;;;;8.32;3.30;;;;;;;;;;4996810;28;20033;-73
2022/03/20 05:03:31;;;;;;;8.13;3.03;;;;;;;;;;4996957;28;20049;-73
2022/03/20 05:05:57;;;;;;;6.78;4.40;;;;;;;;;;4996352;28;20144;-73
2022/03/20 05:08:23;;;;;;;4.78;3.60;;;;;;;;;;4996278;28;20065;-73
2022/03/20 05:13:34;;;;;;;6.40;3.85;;;7.00;96.30;;;;;;4995012;28;20101;-72
2022/03/20 05:16:00;;;;;;;9.30;4.05;;;;;;;;;;4996286;28;20117;-73
2022/03/20 05:18:26;;;;;;;5.30;3.60;;;;;;;;;;4997393;28;20099;-73
2022/03/20 05:20:52;;;;;;;13.73;4.57;;;;;;;;;;4995417;28;20870;-73
2022/03/20 05:23:19;;;;;;;10.95;4.72;;;;;;;;;;4995078;28;20533;-73
2022/03/20 05:25:45;;;;;;;8.90;4.97;;;;;;;;;;4995843;28;20033;-72
2022/03/20 05:28:11;;;;;;;6.93;3.97;;;;;;;;;;4996012;28;20100;-73
2022/03/20 05:30:37;;;;;;;8.75;2.88;;;;;;;;;;4997183;28;20030;-72
2022/03/20 05:33:03;;;;;;;8.95;4.40;;;;;;;;;;4994273;28;20064;-73
2022/03/20 05:35:31;;;;;;;10.02;5.60;;;;;;;;;;4995828;28;20033;-73
2022/03/20 05:37:57;;;;;;;10.25;4.10;;;;;;;;;;4999714;28;20049;-73
2022/03/20 05:40:23;;;;;;;6.50;3.55;;;;;;;;;;4998162;28;21023;-73
2022/03/20 05:42:49;;;;;;;9.32;3.95;;;;;;;;;;5000491;28;20030;-73
2022/03/20 05:45:15;;;;;;;8.80;4.50;;;;;;;;;;4998289;28;20041;-72
2022/03/20 05:47:41;;;;;;;12.07;4.78;;;;;;;;;;4998617;28;20124;-73
2022/03/20 05:50:08;;;;;;;10.52;5.13;;;;;;;;;;4999724;28;20046;-72
2022/03/20 05:52:35;;;;;;;6.90;4.07;;;;;;;;;;4998706;28;20467;-72
2022/03/20 05:55:04;;;;;;;14.07;5.30;;;;;;;;;;4999509;28;20101;-72
2022/03/20 06:00:22;;;;;;;5.65;3.45;;;;;;;;;;5000682;28;20095;-73
2022/03/20 06:02:48;;;;;;;8.40;4.28;;;;;;;;;;4999784;28;20027;-73
2022/03/20 06:05:15;;;;;;;10.00;4.43;;;;;;;;;;4999644;28;20521;-72
2022/03/20 06:07:49;;;;;;;8.95;4.43;;;;;;;;;;4997831;28;20069;-72
2022/03/20 06:10:16;;;;;;;5.95;4.70;;;;;;;;;;4999284;28;20152;-73
2022/03/20 06:12:42;;;;;;;6.72;3.67;;;;;;;;;;4999786;28;20149;-72
2022/03/20 06:15:09;;;;;;;8.63;4.18;;;;;;;;;;4997704;28;20033;-73
2022/03/20 06:17:39;;;;;;;11.13;3.83;;;;;;;;;;4979804;28;20079;-72
2022/03/20 06:20:06;;;;;;;6.38;3.38;;;;;;;;;;4997589;28;20051;-73
2022/03/20 06:22:33;;;;;;;10.35;4.57;;;;;;;;;;4997113;28;20400;-73
2022/03/20 06:24:59;;;;;;;7.70;3.97;;;;;;;;;;4998334;28;20037;-72
2022/03/20 06:27:25;;;;;;;8.48;4.40;;;;;;;;;;4998307;28;20041;-72
2022/03/20 06:29:51;;;;;;;6.55;3.50;;;;;;;;;;4996995;28;20646;-72
2022/03/20 06:32:17;;;;;;;10.45;3.95;;;;;;;;;;4997140;28;20113;-72
2022/03/20 06:34:43;;;;;;;6.82;4.50;;;;;;;;;;4997204;28;20121;-72
2022/03/20 06:37:09;;;;;;;8.95;5.10;;;;;;;;;;4998593;28;20717;-73
2022/03/20 06:39:36;;;;;;;8.25;5.15;;;;;;;;;;4999046;28;20026;-73
2022/03/20 06:42:02;;;;;;;12.57;5.65;;;;;;;;;;4997330;28;20515;-73
2022/03/20 06:44:28;;;;;;;13.25;5.60;;;;;;;;;;4995628;28;20052;-72
2022/03/20 06:46:55;;;;;;;10.27;5.43;;;;;;;;;;4996517;28;20430;-73
2022/03/20 06:49:21;;;;;;;10.60;4.78;;;;;;;;;;4996167;28;20040;-73
2022/03/20 06:51:47;;;;;;;12.85;5.75;;;;;;;;;;4997512;28;20046;-73
2022/03/20 06:54:13;;;;;;;10.30;6.78;;;;;;;;;;4979269;28;20038;-73
2022/03/20 06:56:40;;;;;;;13.32;7.03;;;;;;;;;;4981425;28;20037;-73
2022/03/20 06:59:06;;;;;;;9.60;6.20;;;;;;;;;;4996961;28;20031;-74
2022/03/20 07:01:32;;;;;;;11.52;6.32;;;;;;;;;;4996631;28;20041;-73
2022/03/20 07:03:58;;;;;;;14.98;6.07;;;;;;;;;;4998354;28;20474;-73
2022/03/20 07:06:27;;;;;;;12.63;6.40;;;;;;;;;;4993405;28;20057;-71
2022/03/20 07:08:58;;;;;;;14.27;7.22;;;;;;;;;;4996381;28;20041;-73
2022/03/20 07:11:25;;;;;;;12.10;7.13;;;;;;;;;;4996814;28;20105;-71
2022/03/20 07:13:53;;;;;;;11.68;5.85;;;;;;;;;;4996384;28;20093;-73
2022/03/20 07:16:20;;;;;;;10.82;5.60;;;;;;;;;;4997089;28;20038;-73
2022/03/20 07:18:46;;;;;;;23.67;6.35;;;;;;;;;;4996628;28;20078;-70
2022/03/20 07:21:14;;;;;;;17.45;7.82;;;;;;;;;;4993528;28;20034;-69
2022/03/20 07:23:41;;;;;;;8.60;4.35;;;;;;;;;;4994976;28;20042;-70
2022/03/20 07:31:36;;;;;;;9.57;5.90;;;;;;;;;;4993668;28;20209;-70
2022/03/20 07:34:02;;;;;;;14.90;7.07;;;14.80;81.20;;;;;;4995513;28;20061;-70
2022/03/20 07:36:29;;;;;;;14.85;8.02;;;;;;;;;;4995909;28;20030;-69
2022/03/20 07:38:55;;;;;;;15.68;7.05;;;;;;;;;;4994831;28;20034;-69
2022/03/20 07:41:21;;;;;;;14.77;9.43;;;;;;;;;;4993652;28;20030;-70
2022/03/20 07:43:48;;;;;;;17.73;7.53;;;;;;;;;;4995240;28;20103;-69
2022/03/20 07:46:14;;;;;;;17.52;9.05;;;13.50;70.50;;;;;;4996137;28;20037;-70
2022/03/20 07:48:40;;;;;;;20.33;10.70;;;;;;;;;;4997603;28;20038;-71
2022/03/20 07:51:06;;;;;;;35.10;16.23;;;;;;;;;;4993202;28;20042;-71
2022/03/20 07:53:33;;;;;;;32.05;16.35;;;;;;;;;;4995618;28;20026;-71
2022/03/20 07:55:59;;;;;;;53.35;21.85;;;;;;;;;;4993836;28;20026;-70
2022/03/20 07:58:25;;;;;;;22.23;11.73;;;;;;;;;;4996679;28;20034;-70
2022/03/20 08:00:51;;;;;;;24.38;10.82;;;;;;;;;;4997217;28;20402;-73
2022/03/20 08:03:17;;;;;;;22.70;11.20;;;;;;;;;;4995589;28;20092;-73
2022/03/20 08:05:43;;;;;;;17.20;9.70;;;16.40;63.10;;;;;;4994091;28;20126;-71
2022/03/20 08:08:14;;;;;;;17.10;8.77;;;;;;;;;;4994748;28;20676;-70
2022/03/20 08:10:40;;;;;;;13.70;7.72;;;;;;;;;;4995528;28;20136;-70
2022/03/20 08:13:06;;;;;;;16.70;9.65;;;;;;;;;;4992769;28;20116;-71
2022/03/20 08:15:32;;;;;;;20.25;8.43;;;;;;;;;;4995901;28;20592;-69
2022/03/20 08:17:58;;;;;;;20.95;10.73;;;;;;;;;;4994926;28;20021;-70
2022/03/20 08:20:24;;;;;;;25.42;12.07;;;;;;;;;;4994793;28;20056;-69
2022/03/20 08:22:50;;;;;;;19.90;9.48;;;;;;;;;;4978232;28;20539;-70
2022/03/20 08:25:16;;;;;;;18.70;8.98;;;;;;;;;;4995543;28;20034;-72
2022/03/20 08:27:52;;;;;;;19.85;8.95;;;;;;;;;;4998251;28;20216;-69
2022/03/20 08:30:18;;;;;;;16.17;6.38;;;;;;;;;;4994488;28;20054;-72
2022/03/20 08:32:48;;;;;;;8.63;5.65;;;;;;;;;;4994329;28;20046;-68
2022/03/20 08:35:15;;;;;;;14.88;5.38;;;;;;;;;;4992862;28;20065;-69
2022/03/20 08:37:45;;;;;;;12.43;5.78;;;;;;;;;;4989230;28;20038;-69
2022/03/20 08:40:15;;;;;;;10.60;5.85;;;;;;;;;;4995731;28;20040;-69
2022/03/20 08:42:43;;;;;;;12.27;6.72;;;;;;;;;;4994479;28;20088;-69
2022/03/20 08:45:09;;;;;;;12.05;5.28;;;;;;;;;;4990876;28;20034;-69
2022/03/20 08:47:36;;;;;;;17.88;7.45;;;;;;;;;;4992936;28;20120;-70
2022/03/20 08:50:02;;;;;;;8.35;4.65;;;;;;;;;;4991488;28;20406;-69
2022/03/20 08:52:28;;;;;;;8.85;3.97;;;;;;;;;;4993242;28;20046;-69
2022/03/20 08:54:53;;;;;;;9.88;4.35;;;22.00;42.00;;;;;;4994251;28;20018;-69
2022/03/20 08:57:19;;;;;;;11.25;4.85;;;;;;;;;;4993364;28;20034;-69
2022/03/20 08:59:45;;;;;;;13.02;5.32;;;;;;;;;;4993608;28;20030;-69
2022/03/20 09:02:11;;;;;;;11.90;4.60;;;;;;;;;;4991859;28;20084;-69
2022/03/20 09:04:37;;;;;;;7.95;4.05;;;;;;;;;;4994496;28;20030;-69
2022/03/20 09:07:04;;;;;;;7.75;4.05;;;;;;;;;;4991346;28;20078;-69
2022/03/20 09:09:30;;;;;;;7.35;4.50;;;;;;;;;;4995562;28;20022;-69
2022/03/20 09:11:56;;;;;;;9.60;4.38;;;;;;;;;;4994364;28;20385;-69
2022/03/20 09:14:22;;;;;;;9.00;3.95;;;;;;;;;;4996857;28;20069;-68
2022/03/20 09:19:33;;;;;;;10.30;4.45;;;;;;;;;;4996649;28;20104;-68
2022/03/20 09:21:59;;;;;;;9.77;3.40;;;;;;;;;;4995761;28;20141;-69
2022/03/20 09:24:25;;;;;;;7.30;3.42;;;;;;;;;;4996625;28;20027;-69
2022/03/20 09:26:51;;;;;;;5.57;3.08;;;;;;;;;;4993196;28;20025;-69
2022/03/20 09:29:17;;;;;;;20.30;4.35;;;;;;;;;;4995554;28;20037;-69
2022/03/20 09:31:43;;;;;;;11.95;4.32;;;;;;;;;;4995338;28;20621;-69
2022/03/20 09:34:09;;;;;;;7.03;4.53;;;16.20;46.40;;;;;;4979185;28;20025;-68
2022/03/20 09:36:36;;;;;;;8.40;3.33;;;;;;;;;;4997153;28;20026;-69
2022/03/20 09:39:03;;;;;;;10.82;4.10;;;;;;;;;;4997301;28;20137;-69
2022/03/20 09:41:30;;;;;;;7.03;2.83;;;15.70;48.90;;;;;;4996483;28;20018;-68
2022/03/20 09:43:57;;;;;;;14.30;4.43;;;;;;;;;;4995058;28;20064;-68
2022/03/20 09:46:25;;;;;;;7.22;2.80;;;;;;;;;;4996633;28;20034;-68
2022/03/20 09:48:52;;;;;;;9.13;4.95;;;;;;;;;;4992782;28;20133;-68
2022/03/20 09:51:18;;;;;;;11.40;5.03;;;;;;;;;;4994857;28;20041;-69
2022/03/20 09:53:44;;;;;;;12.60;5.32;;;;;;;;;;4992871;28;20419;-68
2022/03/20 09:56:11;;;;;;;12.00;4.20;;;;;;;;;;4996065;28;20041;-69
2022/03/20 09:58:37;;;;;;;10.77;4.57;;;;;;;;;;4995830;28;20452;-69
2022/03/20 10:01:03;;;;;;;6.57;2.58;;;;;;;;;;4996454;28;20510;-69
2022/03/20 10:03:29;;;;;;;8.02;3.22;;;;;;;;;;4997365;28;20018;-68
2022/03/20 10:06:05;;;;;;;6.15;3.70;;;;;;;;;;4996217;28;20030;-68
2022/03/20 10:08:32;;;;;;;6.33;3.27;;;;;;;;;;4996030;28;20042;-69
2022/03/20 10:11:14;;;;;;;4.75;2.60;;;;;;;;;;4995858;28;20502;-68
2022/03/20 10:13:40;;;;;;;5.53;3.17;;;;;;;;;;4994471;28;20030;-68
2022/03/20 10:16:26;;;;;;;5.80;3.42;;;;;;;;;;4995533;28;20034;-67
2022/03/20 10:18:52;;;;;;;9.70;3.23;;;;;;;;;;4992101;28;20054;-68
2022/03/20 10:21:19;;;;;;;8.75;3.47;;;;;;;;;;4995580;28;20058;-68
2022/03/20 10:23:46;;;;;;;5.22;2.78;;;;;;;;;;4994505;28;20760;-69
2022/03/20 10:26:18;;;;;;;6.68;3.45;;;;;;;;;;4994738;28;20041;-69
2022/03/20 10:28:45;;;;;;;11.82;3.83;;;;;;;;;;4995809;28;20451;-68
2022/03/20 10:31:17;;;;;;;19.40;3.65;;;;;;;;;;4996113;28;20376;-68
2022/03/20 10:33:46;;;;;;;13.27;4.05;;;;;;;;;;4997519;28;20030;-68
2022/03/20 10:36:19;;;;;;;8.82;4.25;;;;;;;;;;4994599;28;20115;-69
2022/03/20 10:38:47;;;;;;;9.00;4.40;;;;;;;;;;4993669;28;20033;-69
2022/03/20 10:41:26;;;;;;;8.70;3.83;;;;;;;;;;4994500;28;20722;-68
2022/03/20 10:43:53;;;;;;;9.48;3.17;;;;;;;;;;4994687;28;20029;-68
2022/03/20 10:46:23;;;;;;;10.48;3.65;;;14.60;49.60;;;;;;4994836;28;20042;-69
2022/03/20 10:48:57;;;;;;;7.05;4.05;;;;;;;;;;4995039;28;20033;-69
2022/03/20 10:51:26;;;;;;;5.03;2.75;;;;;;;;;;4993051;28;20046;-70
2022/03/20 10:53:58;;;;;;;22.58;12.35;;;;;;;;;;4993842;28;20084;-69
2022/03/20 10:56:24;;;;;;;9.18;5.07;;;;;;;;;;4992801;28;20442;-69
2022/03/20 10:58:50;;;;;;;9.65;5.65;;;;;;;;;;4996589;28;20026;-70
2022/03/20 11:01:17;;;;;;;12.93;3.42;;;;;;;;;;4995510;28;20040;-70
2022/03/20 11:03:44;;;;;;;8.70;4.85;;;;;;;;;;4997682;28;20532;-71
2022/03/20 11:06:11;;;;;;;5.75;3.00;;;;;;;;;;4995228;28;20045;-70
2022/03/20 11:08:38;;;;;;;9.40;3.05;;;;;;;;;;4996476;28;20099;-70
2022/03/20 11:11:04;;;;;;;6.57;3.25;;;;;;;;;;4992974;28;20555;-70
2022/03/20 11:13:32;;;;;;;7.50;3.25;;;;;;;;;;4994703;28;20030;-70
2022/03/20 11:15:59;;;;;;;9.40;3.60;;;;;;;;;;4994716;28;20491;-70
2022/03/20 11:18:25;;;;;;;;;;;;;;;;;;4976656;28;20049;-70
2022/03/20 11:20:52;;;;;;;7.18;3.75;;;;;;;;;;4995019;28;19917;-69
2022/03/20 11:23:19;;;;;;;5.35;3.55;;;;;;;;;;4994372;28;20498;-70
2022/03/20 11:25:45;;;;;;;8.93;2.53;;;;;;;;;;4992289;28;20031;-70
2022/03/20 11:28:15;;;;;;;7.03;3.83;;;;;;;;;;4993845;28;20137;-70
2022/03/20 11:30:44;;;;;;;6.95;3.50;;;16.80;44.50;;;;;;4996223;28;20157;-71
2022/03/20 11:33:10;;;;;;;3.45;2.72;;;;;;;;;;4994198;28;20136;-70
2022/03/20 11:35:37;;;;;;;4.07;2.83;;;;;;;;;;4994287;28;20658;-70
2022/03/20 11:38:25;;;;;;;5.78;3.75;;;16.60;43.70;;;;;;4994198;28;20651;-70
2022/03/20 11:41:07;;;;;;;4.07;3.20;;;;;;;;;;4994010;28;20073;-70
2022/03/20 11:43:35;;;;;;;7.10;3.45;;;;;;;;;;4994021;28;20049;-69
2022/03/20 11:46:30;;;;;;;11.48;5.32;;;;;;;;;;4994079;28;20065;-70
2022/03/20 11:49:17;;;;;;;20.95;5.53;;;;;;;;;;4994435;28;20121;-70
2022/03/20 11:52:01;;;;;;;18.50;6.82;;;15.90;45.70;;;;;;4994834;28;20050;-70
2022/03/20 11:54:31;;;;;;;22.58;5.78;;;;;;;;;;4992308;28;20026;-69
2022/03/20 11:56:58;;;;;;;10.93;5.00;;;15.70;54.10;;;;;;4992900;28;20054;-70
2022/03/20 11:59:43;;;;;;;19.65;9.50;;;;;;;;;;4992669;28;20476;-70
2022/03/20 12:02:09;;;;;;;13.13;5.30;;;;;;;;;;4991943;28;20955;-70
2022/03/20 12:04:44;;;;;;;14.10;6.68;;;;;;;;;;4991013;28;20467;-70
2022/03/20 12:07:22;;;;;;;12.63;5.45;;;;;;;;;;4991816;28;20038;-70
2022/03/20 12:10:10;;;;;;;8.10;4.80;;;;;;;;;;4996042;28;20507;-74
2022/03/20 12:12:40;;;;;;;12.75;7.38;;;;;;;;;;4991529;28;20040;-74
2022/03/20 12:15:10;;;;;;;22.45;8.07;;;;;;;;;;4993392;28;20026;-72
2022/03/20 12:17:55;;;;;;;10.27;5.68;;;;;;;;;;4991582;28;20041;-73
2022/03/20 12:20:39;;;;;;;10.18;6.07;;;;;;;;;;4994937;28;20034;-73
2022/03/20 12:23:24;;;;;;;14.27;5.50;;;;;;;;;;4994834;28;20033;-73
2022/03/20 12:25:50;;;;;;;12.02;6.63;;;;;;;;;;4977495;28;20032;-72
2022/03/20 12:28:32;;;;;;;13.60;6.00;;;;;;;;;;4995652;28;20061;-72
2022/03/20 12:30:58;;;;;;;14.02;5.03;;;;;;;;;;4997308;28;20022;-72
2022/03/20 12:33:25;;;;;;;8.18;5.80;;;;;;;;;;4994582;28;20069;-72
2022/03/20 12:35:52;;;;;;;8.90;4.65;;;;;;;;;;4993437;28;20445;-72
2022/03/20 12:38:35;;;;;;;19.43;8.93;;;16.20;45.90;;;;;;4993771;28;20034;-73
2022/03/20 12:41:13;;;;;;;13.60;7.80;;;;;;;;;;4994523;28;20045;-73
2022/03/20 12:43:40;;;;;;;10.15;4.65;;;;;;;;;;4994835;28;20595;-70
2022/03/20 12:46:08;;;;;;;9.57;3.08;;;;;;;;;;4994977;28;20037;-71
2022/03/20 12:48:35;;;;;;;7.32;3.20;;;;;;;;;;4999652;28;20174;-71
2022/03/20 12:51:11;;;;;;;14.40;5.45;;;;;;;;;;4999244;28;20117;-70
2022/03/20 12:53:47;;;;;;;8.48;3.75;;;;;;;;;;4998705;28;20042;-70
2022/03/20 12:58:43;;;;;;;12.13;4.22;;;;;;;;;;4998492;28;20036;-71
2022/03/20 13:01:12;;;;;;;6.65;3.97;;;;;;;;;;4997440;28;20403;-70
2022/03/20 13:03:38;;;;;;;4.68;3.08;;;;;;;;;;5000107;28;20376;-70
2022/03/20 13:06:04;;;;;;;7.50;3.38;;;;;;;;;;4980546;28;20038;-68
2022/03/20 13:08:31;;;;;;;8.77;3.85;;;;;;;;;;4998057;28;20042;-73
2022/03/20 13:10:58;;;;;;;5.95;3.55;;;16.60;41.30;;;;;;4997272;28;20033;-74
2022/03/20 13:13:28;;;;;;;16.07;4.53;;;;;;;;;;4998869;28;20042;-72
2022/03/20 13:15:54;;;;;;;10.20;3.75;;;;;;;;;;4998253;28;20521;-73
2022/03/20 13:18:25;;;;;;;6.55;3.33;;;16.50;41.10;;;;;;4997834;28;20068;-73
2022/03/20 13:20:51;;;;;;;6.80;3.83;;;;;;;;;;4980985;28;20033;-73
2022/03/20 13:23:18;;;;;;;6.97;3.40;;;;;;;;;;4997321;28;20022;-73
2022/03/20 13:25:45;;;;;;;7.75;2.95;;;;;;;;;;4999269;28;20043;-71
2022/03/20 13:28:30;;;;;;;5.82;2.63;;;;;;;;;;4997989;28;20100;-72
2022/03/20 13:31:03;;;;;;;7.65;3.33;;;;;;;;;;5000102;28;20916;-72
2022/03/20 13:33:36;;;;;;;7.43;2.97;;;;;;;;;;4998826;28;20038;-72
2022/03/20 13:36:03;;;;;;;7.43;3.28;;;;;;;;;;4998380;28;20124;-73
2022/03/20 13:38:36;;;;;;;4.75;3.42;;;;;;;;;;4996507;28;20527;-72
2022/03/20 13:41:07;;;;;;;7.97;3.47;;;;;;;;;;4997771;28;20026;-72
2022/03/20 13:43:34;;;;;;;6.47;2.80;;;;;;;;;;4998140;28;20542;-73
2022/03/20 13:46:16;;;;;;;20.30;9.23;;;;;;;;;;4999603;28;20101;-73
2022/03/20 13:48:43;;;;;;;6.25;3.28;;;;;;;;;;4998356;28;20054;-73
2022/03/20 13:51:09;;;;;;;6.70;3.13;;;;;;;;;;4998520;28;20545;-72
2022/03/20 13:53:35;;;;;;;5.97;2.73;;;;;;;;;;4997294;28;20044;-72
2022/03/20 13:56:02;;;;;;;8.00;3.50;;;;;;;;;;4997485;28;20406;-72
2022/03/20 13:58:28;;;;;;;4.80;2.78;;;;;;;;;;4996271;28;20026;-72
2022/03/20 14:01:00;;;;;;;5.75;3.38;;;;;;;;;;5000012;28;20026;-72
2022/03/20 14:03:30;;;;;;;7.65;3.80;;;;;;;;;;4998428;28;20022;-73
2022/03/20 14:05:56;;;;;;;10.32;4.50;;;;;;;;;;4998180;28;20042;-71
2022/03/20 14:08:22;;;;;;;11.63;3.75;;;;;;;;;;4997318;28;20033;-72
2022/03/20 14:10:52;;;;;;;9.70;5.38;;;;;;;;;;4998239;28;20088;-73
2022/03/20 14:13:22;;;;;;;9.63;3.40;;;;;;;;;;4997047;28;20513;-72
2022/03/20 14:16:03;;;;;;;8.00;3.72;;;;;;;;;;4999839;28;20045;-74
2022/03/20 14:18:30;;;;;;;6.78;4.05;;;15.90;44.00;;;;;;4995865;28;20035;-72
2022/03/20 14:21:16;;;;;;;5.47;1.98;;;15.80;44.70;;;;;;4996476;28;20404;-72
2022/03/20 14:24:08;;;;;;;7.53;3.75;;;;;;;;;;4996700;28;20033;-72
2022/03/20 14:26:38;;;;;;;4.97;3.05;;;;;;;;;;4989762;28;20049;-71
2022/03/20 14:40:46;;;;;;;7.60;2.83;;;15.20;47.10;;;;;;4997305;28;20150;-72
2022/03/20 14:43:12;;;;;;;4.20;2.65;;;;;;;;;;4996670;28;20773;-73
2022/03/20 14:45:39;;;;;;;6.28;2.92;;;;;;;;;;4998871;28;20018;-73
2022/03/20 14:48:07;;;;;;;9.80;3.22;;;;;;;;;;4994732;28;20743;-72
2022/03/20 14:50:33;;;;;;;3.47;2.95;;;;;;;;;;4983098;28;20131;-72
2022/03/20 14:52:59;;;;;;;5.78;3.38;;;;;;;;;;4996003;28;20977;-73
2022/03/20 14:55:25;;;;;;;6.75;3.90;;;;;;;;;;4988437;28;20038;-72
2022/03/20 14:57:51;;;;;;;5.43;2.83;;;;;;;;;;4996204;28;20117;-72
2022/03/20 15:00:18;;;;;;;6.07;2.75;;;14.70;58.30;;;;;;4993814;28;20034;-72
2022/03/20 15:02:48;;;;;;;4.00;2.25;;;;;;;;;;4996326;28;20045;-72
2022/03/20 15:05:14;;;;;;;6.00;3.10;;;;;;;;;;4996791;28;20061;-72
2022/03/20 15:11:23;;;;;;;6.03;3.55;;;;;;;;;;4997045;28;20414;-71
2022/03/20 15:13:10;;;;;;;6.15;3.75;;;;;;;;;;4996715;28;20073;-71
2022/03/20 15:15:36;;;;;;;6.97;3.03;;;;;;;;;;4997073;28;20026;-72
2022/03/20 15:18:03;;;;;;;7.15;3.33;;;;;;;;;;4994207;28;20042;-72